Time;durP1;ratioP1;P1;durP2;ratioP2;P2;SDS_P1;SDS_P2;PMS_P1;PMS_P2;Temp;Humidity;BMP_temperature;BMP_pressure;BME280_temperature;BME280_humidity;BME280_pressure;Samples;Min_cycle;Max_cycle;Signal;HPM_P1;HPM_P2
2023/06/29 00:01:45;;;;;;;;;40.00;34.00;;;;;25.72;40.35;101145.03;5082602;28;46144;-63
2023/06/29 00:04:10;;;;;;;;;43.75;35.00;;;;;25.71;39.92;101145.13;5081565;28;45430;-63
2023/06/29 00:06:37;;;;;;;;;40.50;34.50;;;;;25.69;39.74;101142.56;5081432;28;45320;-63
2023/06/29 00:09:03;;;;;;;;;37.75;32.25;;;;;25.71;40.25;101139.75;5081485;28;45239;-63
2023/06/29 00:11:29;;;;;;;;;45.75;34.75;;;;;25.69;40.27;101144.41;5082213;28;45306;-63
2023/06/29 00:13:55;;;;;;;;;48.50;37.75;;;;;25.68;39.77;101143.53;5081177;28;45347;-63
2023/06/29 00:16:20;;;;;;;;;44.25;34.00;;;;;25.68;39.76;101143.53;5082947;27;45339;-63
2023/06/29 00:18:45;;;;;;;;;48.75;38.00;;;;;25.67;40.26;101139.09;5081029;28;48622;-63
2023/06/29 00:21:11;;;;;;;;;50.50;39.75;;;;;25.66;40.17;101139.22;5082412;28;46212;-63
2023/06/29 00:23:36;;;;;;;;;46.75;39.50;;;;;25.65;40.40;101135.69;5081216;28;45359;-63
2023/06/29 00:26:02;;;;;;;;;50.50;41.75;;;;;25.64;40.57;101137.50;5081862;27;45305;-63
2023/06/29 00:28:27;;;;;;;;;51.75;41.00;;;;;25.62;40.28;101128.69;5082458;28;45264;-63
2023/06/29 00:30:52;;;;;;;;;49.25;37.75;;;;;25.61;40.58;101128.81;5082092;28;45302;-63
2023/06/29 00:33:18;;;;;;;;;46.50;37.75;;;;;25.61;40.15;101134.19;5082324;28;48370;-63
2023/06/29 00:35:43;;;;;;;;;50.00;39.75;;;;;25.59;40.59;101126.22;5082413;28;45311;-63
2023/06/29 00:38:08;;;;;;;;;53.75;42.50;;;;;25.59;40.03;101131.59;5082247;28;45331;-63
2023/06/29 00:40:34;;;;;;;;;54.25;43.25;;;;;25.56;40.75;101121.06;5081638;28;45459;-63
2023/06/29 00:42:59;;;;;;;;;56.25;44.00;;;;;25.57;39.96;101120.09;5081091;28;45326;-63
2023/06/29 00:45:24;;;;;;;;;54.25;42.50;;;;;25.57;40.12;101122.78;5082028;28;45302;-63
2023/06/29 00:47:52;;;;;;;;;57.75;47.25;;;;;25.57;40.13;101120.09;5069141;28;48195;-63
2023/06/29 00:50:18;;;;;;;;;57.75;46.25;;;;;25.56;40.73;101115.69;5061499;28;46726;-63
2023/06/29 00:52:44;;;;;;;;;55.25;44.75;;;;;25.55;40.40;101115.81;5061713;28;45528;-63
2023/06/29 00:55:09;;;;;;;;;56.50;44.75;;;;;25.54;40.54;101106.84;5060782;28;45394;-63
2023/06/29 00:57:34;;;;;;;;;62.25;48.00;;;;;25.54;40.40;101106.00;5061045;28;45419;-63
2023/06/29 01:00:00;;;;;;;;;59.50;47.50;;;;;25.53;40.26;101110.50;5079300;28;48491;-63
2023/06/29 01:02:31;;;;;;;;;57.00;46.00;;;;;25.53;40.67;101097.06;5081846;28;45177;-63
2023/06/29 01:04:57;;;;;;;;;62.25;47.00;;;;;25.50;40.66;101094.59;5081758;28;45247;-63
2023/06/29 01:07:30;;;;;;;;;59.75;47.25;;;;;25.50;40.64;101094.59;5081843;28;45181;-63
2023/06/29 01:09:58;;;;;;;;;56.25;46.25;;;;;25.52;40.30;101097.16;5081583;28;45469;-63
2023/06/29 01:12:24;;;;;;;;;57.50;46.00;;;;;25.49;40.78;101087.50;5081511;28;45376;-63
2023/06/29 01:14:51;;;;;;;;;52.25;41.25;;;;;25.49;40.49;101089.34;5081835;28;45313;-63
2023/06/29 01:17:21;;;;;;;;;44.75;37.75;;;;;25.49;40.77;101090.19;5081589;27;45533;-63
2023/06/29 01:19:49;;;;;;;;;53.75;41.75;;;;;25.48;40.31;101088.47;5080047;28;48614;-63
2023/06/29 01:22:20;;;;;;;;;52.25;39.25;;;;;25.48;40.45;101088.47;5080125;28;45445;-63
2023/06/29 01:24:47;;;;;;;;;53.25;41.00;;;;;25.47;40.72;101084.03;5081138;28;45297;-63
2023/06/29 01:27:13;;;;;;;;;38.00;31.75;;;;;25.43;40.33;101075.38;5081378;28;45621;-63
2023/06/29 01:29:39;;;;;;;;;48.00;38.50;;;;;25.46;40.26;101087.72;5081429;28;45391;-63
2023/06/29 01:32:09;;;;;;;;;45.00;34.75;;;;;25.46;41.00;101080.50;5081292;28;45196;-63
2023/06/29 01:34:36;;;;;;;;;44.25;33.75;;;;;25.45;40.39;101073.41;5081625;28;45381;-63
2023/06/29 01:37:25;;;;;;;;;44.50;35.75;;;;;25.44;40.41;101070.81;5081465;28;45389;-63
2023/06/29 01:39:58;;;;;;;;;43.25;35.25;;;;;25.42;40.79;101067.38;5080972;28;45357;-63
2023/06/29 01:42:25;;;;;;;;;41.00;33.25;;;;;25.41;40.38;101071.06;5080096;28;46038;-63
2023/06/29 01:44:53;;;;;;;;;46.50;34.25;;;;;25.42;40.70;101072.75;5079500;28;45249;-63
2023/06/29 01:47:20;;;;;;;;;40.00;33.75;;;;;25.40;40.91;101072.88;5066016;28;45465;-63
2023/06/29 01:49:45;;;;;;;;;45.75;35.00;;;;;25.39;40.86;101065.78;5060599;28;46377;-63
2023/06/29 01:52:11;;;;;;;;;39.50;34.75;;;;;25.39;40.46;101063.06;5060997;28;45482;-63
2023/06/29 01:54:36;;;;;;;;;45.50;38.00;;;;;25.38;40.56;101069.44;5060521;28;45371;-63
2023/06/29 01:57:05;;;;;;;;;37.75;32.50;;;;;25.37;40.72;101062.34;5060562;28;45240;-63
2023/06/29 01:59:30;;;;;;;;;45.75;37.00;;;;;25.35;40.51;101064.25;5073896;28;45897;-63
2023/06/29 02:01:55;;;;;;;;;40.25;35.50;;;;;25.33;40.58;101058.09;5080795;28;47434;-63
2023/06/29 02:04:21;;;;;;;;;49.50;37.25;;;;;25.33;40.71;101062.63;5080974;28;45145;-63
2023/06/29 02:06:46;;;;;;;;;49.50;39.25;;;;;25.33;40.58;101065.31;5072538;28;45555;-63
2023/06/29 02:09:14;;;;;;;;;47.25;38.75;;;;;25.28;41.03;101058.47;5075832;28;47833;-63
2023/06/29 02:11:39;;;;;;;;;50.75;39.25;;;;;25.30;40.54;101061.88;5060394;28;45335;-63
2023/06/29 02:14:05;;;;;;;;;44.50;36.50;;;;;25.29;41.00;101056.63;5059342;28;45323;-63
2023/06/29 02:16:30;;;;;;;;;47.25;35.75;;;;;25.27;40.60;101062.13;5059088;28;45238;-63
2023/06/29 02:18:55;;;;;;;;;47.00;39.00;;;;;25.26;40.90;101048.78;5060347;28;45431;-63
2023/06/29 02:21:21;;;;;;;;;47.50;38.75;;;;;25.28;40.99;101054.88;5060227;28;45400;-63
2023/06/29 02:23:46;;;;;;;;;45.75;36.00;;;;;25.27;41.00;101055.84;5060376;28;45248;-63
2023/06/29 02:26:12;;;;;;;;;48.75;39.50;;;;;25.23;41.00;101049.88;5059923;28;45328;-63
2023/06/29 02:28:37;;;;;;;;;46.25;38.00;;;;;25.26;40.83;101055.00;5060044;28;46906;-63
2023/06/29 02:31:03;;;;;;;;;47.50;36.00;;;;;25.26;40.62;101065.75;5060290;28;45315;-63
2023/06/29 02:33:28;;;;;;;;;46.25;36.50;;;;;25.26;40.79;101060.38;5060258;28;45229;-63
2023/06/29 02:35:53;;;;;;;;;47.00;37.25;;;;;25.25;40.94;101052.44;5060209;28;45370;-63
2023/06/29 02:38:19;;;;;;;;;41.75;30.75;;;;;25.25;40.76;101055.13;5059890;28;47951;-63
2023/06/29 02:40:44;;;;;;;;;43.75;34.50;;;;;25.24;40.78;101053.41;5059840;28;45372;-63
2023/06/29 02:43:10;;;;;;;;;39.75;33.50;;;;;25.21;41.17;101043.72;5060099;28;45382;-63
2023/06/29 02:45:35;;;;;;;;;42.00;33.75;;;;;25.19;41.10;101039.44;5059986;28;45359;-63
2023/06/29 02:48:00;;;;;;;;;44.00;35.00;;;;;25.18;40.85;101035.00;5065993;28;48959;-63
2023/06/29 02:50:26;;;;;;;;;45.50;35.25;;;;;25.17;40.90;101039.53;5058722;28;45225;-63
2023/06/29 02:52:51;;;;;;;;;42.00;35.25;;;;;25.17;41.34;101042.22;5059835;28;45442;-63
2023/06/29 02:55:17;;;;;;;;;47.25;38.00;;;;;25.15;41.49;101042.31;5059690;28;45295;-63
2023/06/29 02:57:42;;;;;;;;;43.50;35.75;;;;;25.14;41.25;101034.38;5059768;28;45328;-63
2023/06/29 03:00:08;;;;;;;;;47.25;35.50;;;;;25.12;41.48;101033.63;5079916;28;45327;-63
2023/06/29 03:02:33;;;;;;;;;41.75;34.00;;;;;25.13;41.41;101029.94;5080316;27;45525;-63
2023/06/29 03:04:59;;;;;;;;;44.25;36.75;;;;;25.07;40.96;101025.88;5079835;28;45353;-64
2023/06/29 03:07:24;;;;;;;;;42.00;34.50;;;;;25.10;41.47;101032.88;5079847;28;46218;-63
2023/06/29 03:09:49;;;;;;;;;39.00;33.00;;;;;25.12;41.49;101033.63;5079703;28;45344;-63
2023/06/29 03:12:15;;;;;;;;;42.50;34.50;;;;;25.11;41.19;101030.06;5079811;28;51124;-63
2023/06/29 03:14:40;;;;;;;;;120.25;110.25;;;;;25.09;41.37;101028.47;5079790;28;45382;-63
2023/06/29 03:17:07;;;;;;;;;37.00;32.50;;;;;25.11;41.14;101031.91;5079675;28;49853;-63
2023/06/29 03:19:33;;;;;;;;;39.25;33.25;;;;;25.11;41.23;101023.84;5080962;27;45288;-63
2023/06/29 03:21:58;;;;;;;;;43.25;35.25;;;;;25.11;41.17;101023.84;5083708;28;45153;-63
2023/06/29 03:24:23;;;;;;;;;46.75;36.00;;;;;25.10;41.61;101024.81;5083122;28;45239;-63
2023/06/29 03:26:48;;;;;;;;;42.75;33.50;;;;;25.10;41.40;101032.88;5082749;28;51456;-63
2023/06/29 03:29:14;;;;;;;;;45.00;35.75;;;;;25.09;41.53;101028.47;5083308;28;45216;-63
2023/06/29 03:31:39;;;;;;;;;37.25;31.75;;;;;25.05;41.43;101033.19;5075964;28;45231;-63
2023/06/29 03:34:04;;;;;;;;;44.00;35.50;;;;;25.06;41.42;101032.22;5073118;28;45473;-63
2023/06/29 03:36:30;;;;;;;;;46.00;34.75;;;;;25.02;41.37;101033.41;5072460;28;45908;-63
2023/06/29 03:38:55;;;;;;;;;40.50;34.25;;;;;25.03;41.39;101031.59;5085655;27;45324;-63
2023/06/29 03:41:21;;;;;;;;;42.25;35.75;;;;;24.99;42.00;101037.19;5072549;28;45318;-63
2023/06/29 03:43:46;;;;;;;;;44.00;37.75;;;;;24.98;41.71;101039.97;5073207;28;45957;-63
2023/06/29 03:46:11;;;;;;;;;79.67;71.00;;;;;24.95;41.74;101035.66;5075601;27;47923;-63
2023/06/29 03:48:36;;;;;;;;;43.75;36.50;;;;;24.93;42.13;101029.56;5072639;28;45472;-63
2023/06/29 03:51:02;;;;;;;;;44.75;36.00;;;;;24.95;41.73;101035.66;5072408;28;45301;-63
2023/06/29 03:53:27;;;;;;;;;43.75;35.50;;;;;24.92;41.91;101035.91;5072318;28;45326;-63
2023/06/29 03:55:53;;;;;;;;;48.00;37.00;;;;;24.95;41.73;101038.34;5071760;28;45437;-63
2023/06/29 03:58:18;;;;;;;;;43.25;34.50;;;;;24.92;41.49;101035.91;5078922;28;45455;-63
2023/06/29 04:00:44;;;;;;;;;42.25;35.50;;;;;24.92;41.96;101030.53;5081776;28;45444;-63
2023/06/29 04:03:10;;;;;;;;;47.00;38.25;;;;;24.94;41.99;101039.34;5082992;27;45539;-63
2023/06/29 04:05:35;;;;;;;;;40.25;32.25;;;;;24.85;41.56;101015.78;5082639;28;45374;-63
2023/06/29 04:08:04;;;;;;;;;42.25;36.25;;;;;24.93;41.86;101031.38;5082731;28;45351;-63
2023/06/29 04:10:29;;;;;;;;;45.25;37.25;;;;;24.92;41.91;101030.53;5082554;28;45165;-63
2023/06/29 04:12:54;;;;;;;;;48.00;38.00;;;;;24.93;41.96;101020.63;5082516;28;45221;-63
2023/06/29 04:15:20;;;;;;;;;42.00;36.00;;;;;24.92;41.93;101022.47;5080777;28;47632;-63
2023/06/29 04:17:45;;;;;;;;;37.50;31.50;;;;;24.92;42.05;101021.59;5082498;28;47199;-63
2023/06/29 04:20:11;;;;;;;;;40.50;33.75;;;;;24.91;41.82;101012.66;5082645;28;45514;-63
2023/06/29 04:22:36;;;;;;;;;44.50;35.25;;;;;24.89;41.87;101017.31;5082421;28;45574;-63
2023/06/29 04:25:01;;;;;;;;;45.00;35.00;;;;;24.88;41.63;101012.03;5081730;28;52885;-63
2023/06/29 04:27:27;;;;;;;;;46.75;37.75;;;;;24.90;41.78;101013.63;5082602;27;45487;-63
2023/06/29 04:29:52;;;;;;;;;37.50;32.50;;;;;24.91;41.71;101017.19;5069469;28;45222;-63
2023/06/29 04:32:17;;;;;;;;;39.00;34.00;;;;;24.93;42.29;101015.25;5062011;28;45304;-63
2023/06/29 04:34:43;;;;;;;;;46.00;37.00;;;;;24.91;42.19;101012.66;5061834;28;46220;-63
2023/06/29 04:37:09;;;;;;;;;47.75;38.25;;;;;24.92;41.77;101017.06;5061734;28;45596;-63
2023/06/29 04:39:34;;;;;;;;;47.25;36.25;;;;;24.92;42.12;101013.53;5061991;28;45409;-63
2023/06/29 04:42:04;;;;;;;;;42.25;36.00;;;;;24.92;41.88;101003.63;5060528;28;45322;-64
2023/06/29 04:44:32;;;;;;;;;46.25;37.75;;;;;24.91;42.28;101001.91;5060406;28;47031;-64
2023/06/29 04:47:02;;;;;;;;;42.75;35.75;;;;;24.91;41.73;101007.28;5067652;28;45426;-64
2023/06/29 04:49:31;;;;;;;;;50.00;39.25;;;;;24.93;42.03;101005.38;5061879;28;45414;-63
2023/06/29 04:52:00;;;;;;;;;49.50;38.25;;;;;24.93;41.39;101009.88;5061715;28;45522;-64
2023/06/29 04:54:26;;;;;;;;;46.50;38.75;;;;;24.93;41.79;101016.13;5061632;28;45390;-64
2023/06/29 04:56:52;;;;;;;;;47.75;34.50;;;;;24.92;42.12;101011.72;5061499;28;45294;-63
2023/06/29 04:59:18;;;;;;;;;47.75;36.75;;;;;24.92;42.56;101019.78;5071645;28;45224;-63
2023/06/29 05:01:43;;;;;;;;;47.25;36.50;;;;;24.91;41.90;101012.66;5064396;28;45510;-63
2023/06/29 05:04:08;;;;;;;;;46.25;37.00;;;;;24.93;42.03;101015.25;5061686;28;45330;-63
2023/06/29 05:06:33;;;;;;;;;41.25;34.75;;;;;24.90;42.00;101008.25;5061428;28;45182;-64
2023/06/29 05:08:59;;;;;;;;;36.25;32.50;;;;;24.93;42.41;101023.31;5061700;28;45145;-63
2023/06/29 05:11:24;;;;;;;;;41.25;36.25;;;;;24.93;41.97;101021.50;5061282;28;45629;-64
2023/06/29 05:13:50;;;;;;;;;53.50;39.50;;;;;24.91;42.64;101018.03;5061369;28;45968;-63
2023/06/29 05:16:15;;;;;;;;;42.00;34.50;;;;;24.95;41.95;101024.91;5060002;28;45256;-63
2023/06/29 05:18:40;;;;;;;;;46.75;38.25;;;;;24.94;42.42;101022.34;5061480;28;45171;-63
2023/06/29 05:21:07;;;;;;;;;49.75;35.50;;;;;24.94;42.46;101022.34;5071047;28;45336;-63
2023/06/29 05:23:33;;;;;;;;;42.50;36.00;;;;;24.94;42.18;101019.66;5059897;28;47093;-64
2023/06/29 05:25:58;;;;;;;;;46.25;37.25;;;;;24.94;42.56;101022.34;5060637;28;45256;-63
2023/06/29 05:28:23;;;;;;;;;48.75;37.00;;;;;24.95;41.92;101024.91;5061420;28;45369;-63
2023/06/29 05:30:49;;;;;;;;;43.75;34.50;;;;;24.96;42.46;101025.78;5060961;28;45266;-63
2023/06/29 05:33:14;;;;;;;;;42.50;34.75;;;;;24.95;42.47;101024.06;5059657;28;47386;-63
2023/06/29 05:35:39;;;;;;;;;46.25;37.00;;;;;24.98;42.23;101030.09;5060890;28;45323;-63
2023/06/29 05:38:05;;;;;;;;;39.75;33.25;;;;;24.97;41.97;101025.69;5061288;28;45414;-66
2023/06/29 05:40:32;;;;;;;;;45.00;35.75;;;;;24.97;42.42;101017.63;5060557;28;45337;-64
2023/06/29 05:42:57;;;;;;;;;44.50;36.50;;;;;24.99;42.23;101012.13;5060224;28;45375;-64
2023/06/29 05:45:23;;;;;;;;;42.00;35.00;;;;;24.99;42.36;101015.69;5062456;28;45384;-63
2023/06/29 05:47:48;;;;;;;;;43.25;35.50;;;;;25.01;42.38;101006.66;5068001;28;45466;-62
2023/06/29 05:50:16;;;;;;;;;47.25;37.25;;;;;25.01;42.17;101006.66;5059483;28;45491;-62
2023/06/29 05:52:41;;;;;;;;;43.50;36.00;;;;;25.02;42.44;101011.91;5071667;28;47881;-63
2023/06/29 05:55:07;;;;;;;;;42.25;33.50;;;;;25.03;42.48;101016.34;5075512;28;45398;-62
2023/06/29 05:57:32;;;;;;;;;45.25;34.75;;;;;25.03;42.09;101016.34;5058073;28;45499;-64
2023/06/29 05:59:57;;;;;;;;;53.00;40.25;;;;;25.03;42.39;101020.81;5078395;28;45466;-64
2023/06/29 06:02:23;;;;;;;;;37.00;32.25;;;;;25.06;42.44;101024.16;5080828;28;46465;-62
2023/06/29 06:04:49;;;;;;;;;32.25;27.75;;;;;25.06;42.58;101016.09;5080444;28;46156;-63
2023/06/29 06:07:15;;;;;;;;;40.50;33.00;;;;;25.08;42.46;101015.97;5081235;28;45268;-63
2023/06/29 06:09:40;;;;;;;;;45.00;34.50;;;;;25.10;42.54;101025.66;5080768;28;45488;-71
2023/06/29 06:12:06;;;;;;;;;41.50;35.25;;;;;25.10;42.52;101016.75;5080067;28;46032;-69
2023/06/29 06:14:31;;;;;;;;;39.75;32.75;;;;;25.10;42.63;101019.44;5075407;28;45421;-69
2023/06/29 06:16:57;;;;;;;;;40.75;31.50;;;;;25.14;42.53;101018.25;5059902;28;45508;-68
2023/06/29 06:19:22;;;;;;;;;37.00;31.00;;;;;25.13;42.35;101014.69;5059923;28;45536;-66
2023/06/29 06:21:47;;;;;;;;;39.00;33.50;;;;;25.15;42.64;101020.81;5060410;28;46122;-70
2023/06/29 06:24:12;;;;;;;;;45.00;35.75;;;;;25.18;42.63;101013.50;5058556;28;45250;-65
2023/06/29 06:26:38;;;;;;;;;44.25;31.00;;;;;25.17;42.63;101006.41;5059882;28;45576;-69
2023/06/29 06:29:03;;;;;;;;;38.25;32.50;;;;;25.21;42.62;101008.78;5060169;28;45618;-69
2023/06/29 06:31:29;;;;;;;;;40.50;32.50;;;;;25.23;42.40;101008.66;5060357;28;46277;-69
2023/06/29 06:33:57;;;;;;;;;40.50;33.25;;;;;25.23;42.59;101003.28;5059225;28;45334;-69
2023/06/29 06:36:23;;;;;;;;;40.50;33.50;;;;;25.23;42.84;101006.84;5060426;28;45388;-70
2023/06/29 06:38:48;;;;;;;;;37.00;31.25;;;;;25.27;42.43;101019.09;5058971;28;45523;-70
2023/06/29 06:41:14;;;;;;;;;42.75;33.50;;;;;25.26;42.60;101005.75;5059873;28;45421;-70
2023/06/29 06:43:40;;;;;;;;;42.50;33.50;;;;;25.26;42.78;101008.44;5060187;28;45356;-70
2023/06/29 06:46:05;;;;;;;;;39.00;32.50;;;;;25.26;42.60;101011.13;5064230;28;45458;-69
2023/06/29 06:48:30;;;;;;;;;34.00;32.00;;;;;25.28;42.82;101011.88;5075356;28;49257;-70
2023/06/29 06:50:56;;;;;;;;;43.00;35.00;;;;;25.28;42.91;101015.44;5070228;28;47007;-69
2023/06/29 06:53:21;;;;;;;;;33.75;30.50;;;;;25.30;42.52;101020.69;5079398;28;45261;-70
2023/06/29 06:55:46;;;;;;;;;42.75;32.25;;;;;25.26;43.15;101003.91;5078591;28;45256;-70
2023/06/29 06:58:11;;;;;;;;;42.00;32.50;;;;;25.28;42.50;101014.56;5076836;28;45267;-70
2023/06/29 07:00:38;;;;;;;;;40.75;33.75;;;;;25.30;42.69;101016.16;5080128;28;45895;-71
2023/06/29 07:03:04;;;;;;;;;40.00;33.00;;;;;25.33;42.96;101016.91;5079372;28;45474;-69
2023/06/29 07:05:29;;;;;;;;;39.00;32.25;;;;;25.31;42.62;101012.50;5077969;28;45355;-69
2023/06/29 07:07:55;;;;;;;;;35.50;32.50;;;;;25.34;42.80;101014.13;5080187;28;45420;-69
2023/06/29 07:10:20;;;;;;;;;40.00;32.75;;;;;25.35;42.87;101015.84;5079689;28;46166;-69
2023/06/29 07:12:46;;;;;;;;;37.00;32.75;;;;;25.34;42.98;101011.41;5080039;28;45255;-69
2023/06/29 07:15:12;;;;;;;;;38.75;32.50;;;;;25.37;43.03;101021.13;5080164;28;45517;-69
2023/06/29 07:17:37;;;;;;;;;36.00;30.75;;;;;25.38;42.81;101021.00;5078592;28;45446;-70
2023/06/29 07:20:04;;;;;;;;;42.75;34.50;;;;;25.37;42.67;101005.00;5078409;28;45335;-70
2023/06/29 07:22:29;;;;;;;;;39.25;32.25;;;;;25.39;42.94;101014.66;5061904;28;45268;-70
2023/06/29 07:24:57;;;;;;;;;29.25;27.75;;;;;25.40;42.87;101010.16;5079462;28;45571;-70
2023/06/29 07:27:22;;;;;;;;;34.00;30.75;;;;;25.42;42.80;101014.47;5078427;28;45490;-69
2023/06/29 07:29:47;;;;;;;;;32.75;29.75;;;;;25.42;42.88;101011.78;5078659;28;46376;-69
2023/06/29 07:32:13;;;;;;;;;38.50;32.50;;;;;25.44;42.75;101008.97;5079771;28;45149;-69
2023/06/29 07:34:38;;;;;;;;;36.75;30.75;;;;;25.48;42.59;101005.06;5079998;28;45589;-69
2023/06/29 07:37:05;;;;;;;;;37.75;30.75;;;;;25.50;42.82;101008.50;5061122;28;45727;-69
2023/06/29 07:39:30;;;;;;;;;35.00;29.00;;;;;25.51;43.22;101002.16;5059348;28;45458;-69
2023/06/29 07:41:56;;;;;;;;;44.25;34.00;;;;;25.53;42.50;101002.91;5071742;28;45251;-69
2023/06/29 07:44:21;;;;;;;;;43.50;34.25;;;;;25.55;43.12;101006.34;5059668;28;45335;-69
2023/06/29 07:46:46;;;;;;;;;38.25;30.75;;;;;25.58;42.64;101006.09;5065676;28;45629;-69
2023/06/29 07:49:12;;;;;;;;;30.75;30.50;;;;;25.59;43.01;101005.13;5048225;28;48080;-69
2023/06/29 07:51:37;;;;;;;;;32.25;28.50;;;;;25.62;42.75;100999.53;5059486;28;45268;-69
2023/06/29 07:54:04;;;;;;;;;35.25;32.50;;;;;25.62;42.81;101001.34;5057906;28;45340;-69
2023/06/29 07:56:30;;;;;;;;;34.00;29.25;;;;;25.66;42.99;101002.00;5071636;28;45581;-69
2023/06/29 07:58:56;;;;;;;;;36.50;31.00;;;;;25.66;42.52;100991.22;5069084;28;45277;-69
2023/06/29 08:01:23;;;;;;;;;30.25;24.25;;;;;25.70;42.49;100998.09;5078037;28;45400;-69
2023/06/29 08:03:49;;;;;;;;;33.75;28.75;;;;;25.71;42.64;101002.50;5061321;28;45214;-69
2023/06/29 08:06:14;;;;;;;;;37.50;33.00;;;;;25.72;43.21;100990.78;5080383;28;45404;-69
2023/06/29 08:08:40;;;;;;;;;33.00;28.50;;;;;25.74;43.16;100992.38;5082699;28;45353;-70
2023/06/29 08:11:05;;;;;;;;;36.25;31.50;;;;;25.76;42.85;100989.56;5081004;28;45376;-69
2023/06/29 08:13:30;;;;;;;;;37.75;32.75;;;;;25.79;43.06;100984.81;5081595;28;45178;-69
2023/06/29 08:15:55;;;;;;;;;39.75;31.75;;;;;25.83;43.03;100984.59;5082799;28;45177;-69
2023/06/29 08:18:21;;;;;;;;;39.00;32.75;;;;;25.83;43.09;100982.75;5071241;28;47043;-69
2023/06/29 08:20:46;;;;;;;;;38.00;31.75;;;;;25.84;42.75;100978.25;5062312;28;45271;-69
2023/06/29 08:23:13;;;;;;;;;34.75;29.00;;;;;25.87;42.83;100972.63;5061255;28;46007;-69
2023/06/29 08:25:38;;;;;;;;;31.75;28.75;;;;;25.84;42.92;100968.34;5061937;28;45381;-69
2023/06/29 08:28:03;;;;;;;;;28.75;26.00;;;;;25.90;42.89;100975.06;5062296;28;46333;-69
2023/06/29 08:30:29;;;;;;;;;34.50;28.75;;;;;25.91;42.38;100977.69;5060783;28;45396;-69
2023/06/29 08:32:54;;;;;;;;;29.25;27.00;;;;;25.91;42.95;100974.97;5062431;28;45330;-69
2023/06/29 08:35:19;;;;;;;;;33.00;28.50;;;;;25.93;42.97;100977.56;5062077;28;45430;-69
2023/06/29 08:37:45;;;;;;;;;33.25;30.25;;;;;25.95;42.82;100987.22;5060731;28;47215;-69
2023/06/29 08:40:11;;;;;;;;;35.25;25.75;;;;;25.96;42.74;100983.56;5061708;28;45465;-69
2023/06/29 08:42:40;;;;;;;;;33.25;25.25;;;;;25.96;42.54;100978.19;5061214;28;45327;-68
2023/06/29 08:45:06;;;;;;;;;28.00;24.75;;;;;26.01;42.00;100979.66;5061667;28;45187;-68
2023/06/29 08:47:34;;;;;;;;;31.00;29.50;;;;;26.02;42.37;100970.63;5076923;28;48496;-68
2023/06/29 08:50:00;;;;;;;;;31.75;27.25;;;;;26.02;42.30;100984.06;5081966;28;45335;-69
2023/06/29 08:52:30;;;;;;;;;37.00;31.50;;;;;26.04;42.47;100974.06;5080794;28;45482;-69
2023/06/29 08:54:57;;;;;;;;;35.50;30.25;;;;;26.07;42.47;100973.84;5063572;28;45639;-69
2023/06/29 08:57:23;;;;;;;;;23.25;23.25;;;;;26.11;42.19;100969.94;5061629;28;46599;-69
2023/06/29 08:59:48;;;;;;;;;33.75;28.25;;;;;26.15;42.49;100974.13;5078779;28;45418;-71
2023/06/29 09:02:15;;;;;;;;;31.75;30.25;;;;;26.20;42.42;100966.56;5082105;28;45433;-70
2023/06/29 09:04:40;;;;;;;;;30.75;24.25;;;;;26.25;42.09;100976.94;5080472;28;45556;-71
2023/06/29 09:07:06;;;;;;;;;27.50;24.75;;;;;26.30;41.92;100973.91;5081495;28;45364;-72
2023/06/29 09:09:32;;;;;;;;;30.75;24.50;;;;;26.28;42.21;100965.97;5080155;28;45384;-71
2023/06/29 09:12:00;;;;;;;;;28.75;25.25;;;;;26.38;42.48;100964.25;5080458;28;45206;-71
2023/06/29 09:14:25;;;;;;;;;32.25;27.00;;;;;26.42;42.05;100967.56;5081563;28;45555;-72
2023/06/29 09:16:57;;;;;;;;;28.00;24.00;;;;;26.45;42.32;100967.31;5080636;28;45699;-71
2023/06/29 09:19:24;;;;;;;;;34.75;29.50;;;;;26.50;42.06;100962.44;5069266;28;45467;-72
2023/06/29 09:21:50;;;;;;;;;29.00;25.75;;;;;26.55;41.90;100964.78;5070004;27;45502;-71
2023/06/29 09:24:16;;;;;;;;;34.50;27.75;;;;;26.54;42.28;100960.34;5071369;28;45359;-70
2023/06/29 09:26:42;;;;;;;;;35.00;29.25;;;;;26.56;41.89;100959.25;5069960;28;45264;-70
2023/06/29 09:29:08;;;;;;;;;30.00;29.00;;;;;26.56;41.88;100961.94;5077328;28;45518;-70
2023/06/29 09:31:36;;;;;;;;;29.00;27.00;;;;;26.57;42.21;100966.38;5069923;28;45272;-69
2023/06/29 09:34:19;;;;;;;;;29.00;28.75;;;;;26.61;42.17;100964.28;5070332;27;45649;-70
2023/06/29 09:36:45;;;;;;;;;34.00;28.50;;;;;26.61;41.92;100956.22;5075931;28;46256;-69
2023/06/29 09:39:14;;;;;;;;;30.00;26.75;;;;;26.64;41.52;100960.50;5069298;28;45461;-70
2023/06/29 09:41:46;;;;;;;;;27.00;25.25;;;;;26.71;41.48;100965.28;5085333;27;45275;-71
2023/06/29 09:44:13;;;;;;;;;30.25;28.00;;;;;26.75;41.50;100968.63;5070844;28;45632;-69
2023/06/29 09:46:41;;;;;;;;;31.25;28.50;;;;;26.79;41.61;100962.00;5071082;28;46550;-69
2023/06/29 09:49:10;;;;;;;;;32.00;27.50;;;;;26.83;41.46;100959.91;5066741;27;46118;-70
2023/06/29 09:51:35;;;;;;;;;31.75;27.50;;;;;26.84;42.25;100950.88;5073990;27;45367;-70
2023/06/29 09:54:04;;;;;;;;;35.75;30.00;;;;;26.93;42.23;100964.47;5074187;27;45303;-70
2023/06/29 09:56:36;;;;;;;;;31.00;27.75;;;;;27.02;41.74;100959.31;5067292;28;46528;-70
2023/06/29 09:59:02;;;;;;;;;36.75;30.25;;;;;27.09;41.47;100968.63;5068257;28;45453;-69
2023/06/29 10:01:31;;;;;;;;;33.00;28.25;;;;;27.10;41.69;100959.56;5073267;28;45353;-69
2023/06/29 10:03:57;;;;;;;;;27.50;25.50;;;;;27.17;42.00;100966.16;5066830;28;45564;-70
2023/06/29 10:06:33;;;;;;;;;30.50;28.00;;;;;27.22;41.86;100961.25;5073281;27;46232;-71
2023/06/29 10:08:59;;;;;;;;;38.50;31.25;;;;;27.31;41.90;100972.25;5073731;28;45291;-72
2023/06/29 10:11:31;;;;;;;;;39.00;32.00;;;;;27.33;42.17;100963.09;5069031;28;45323;-71
2023/06/29 10:14:02;;;;;;;;;32.75;30.25;;;;;27.36;42.04;100968.22;5069995;28;45242;-73
2023/06/29 10:16:39;;;;;;;;;43.50;33.75;;;;;27.38;42.07;100966.25;5078911;28;47346;-70
2023/06/29 10:19:16;;;;;;;;;34.50;30.50;;;;;27.44;41.69;100964.06;5068763;27;45293;-70
2023/06/29 10:21:43;;;;;;;;;43.75;31.50;;;;;27.50;41.46;100974.38;5066180;27;45269;-71
2023/06/29 10:24:14;;;;;;;;;32.25;29.00;;;;;27.49;42.13;100965.38;5075668;28;46348;-70
2023/06/29 10:26:41;;;;;;;;;45.75;33.25;;;;;27.56;41.85;100973.84;5066621;28;46351;-71
2023/06/29 10:29:07;;;;;;;;;38.25;33.25;;;;;27.61;42.01;100970.75;5067771;28;45348;-74
2023/06/29 10:31:33;;;;;;;;;41.75;32.50;;;;;27.63;42.14;100976.91;5069277;28;45442;-76
2023/06/29 10:33:58;;;;;;;;;38.50;33.50;;;;;27.63;41.79;100971.50;5068868;28;45544;-77
2023/06/29 10:36:24;;;;;;;;;43.25;33.00;;;;;27.64;42.05;100978.63;5068551;28;45448;-77
2023/06/29 10:38:50;;;;;;;;;36.50;32.25;;;;;27.67;41.38;100979.22;5075926;28;45382;-77
2023/06/29 10:41:26;;;;;;;;;35.00;32.00;;;;;27.67;41.68;100970.25;5080413;28;45414;-78
2023/06/29 10:43:59;;;;;;;;;43.75;33.00;;;;;27.67;41.16;100975.66;5076049;28;45420;-76
2023/06/29 10:46:49;;;;;;;;;47.25;35.00;;;;;27.67;41.89;100979.22;5069363;28;47254;-76
2023/06/29 10:49:26;;;;;;;;;44.75;35.00;;;;;27.65;41.73;100969.53;5074482;27;45260;-75
2023/06/29 10:51:53;;;;;;;;;38.00;31.00;;;;;27.65;41.48;100973.09;5079303;28;45382;-76
2023/06/29 10:54:24;;;;;;;;;40.50;32.25;;;;;27.63;41.93;100968.78;5083675;27;45432;-76
2023/06/29 10:57:30;;;;;;;;;39.25;32.50;;;;;27.62;42.15;100969.78;5100074;27;45280;-77
2023/06/29 10:59:56;;;;;;;;;39.00;33.75;;;;;27.60;41.59;100959.13;5057149;28;45490;-78
2023/06/29 11:02:22;;;;;;;;;35.25;31.75;;;;;27.59;41.59;100967.34;5091275;27;45236;-77
2023/06/29 11:04:47;;;;;;;;;36.50;31.75;;;;;27.57;41.39;100964.75;5078818;28;45450;-77
2023/06/29 11:07:14;;;;;;;;;37.75;31.25;;;;;27.54;41.73;100963.16;5079760;28;46152;-76